createdAt,value
2023-03-01T00:01:25.837Z,100004.34
2023-03-01T00:06:30.701Z,100003.50
2023-03-01T00:11:35.973Z,100008.78
2023-03-01T00:16:42.413Z,100019.72
2023-03-01T00:21:46.952Z,100009.63
2023-03-01T00:26:54.185Z,100018.06
2023-03-01T00:31:58.315Z,100023.97
2023-03-01T00:37:07.113Z,100027.53
2023-03-01T00:42:10.962Z,100031.63
2023-03-01T00:47:15.821Z,100026.41
2023-03-01T00:52:19.638Z,100028.91
2023-03-01T00:57:23.780Z,100026.34
2023-03-01T01:02:29.409Z,100018.59
2023-03-01T01:07:33.243Z,100019.44
2023-03-01T01:12:37.384Z,100018.53
2023-03-01T01:17:42.084Z,100015.03
2023-03-01T01:22:46.307Z,100008.06
2023-03-01T01:27:50.174Z,99948.72
2023-03-01T01:32:54.154Z,100001.94
2023-03-01T01:37:58.201Z,99990.94
2023-03-01T01:43:02.055Z,100003.53
2023-03-01T01:48:13.137Z,100000.13
2023-03-01T01:53:21.437Z,100005.06
2023-03-01T01:58:28.877Z,100024.00
2023-03-01T02:03:39.078Z,100027.28
2023-03-01T02:08:44.054Z,100012.59
2023-03-01T02:13:50.919Z,100014.25
2023-03-01T02:18:55.309Z,100021.91
2023-03-01T02:24:24.622Z,100014.19
2023-03-01T02:29:30.395Z,100010.69
2023-03-01T02:34:35.659Z,100021.63
2023-03-01T02:39:44.566Z,100021.50
2023-03-01T02:44:48.600Z,100024.75
2023-03-01T02:49:53.830Z,100017.03
2023-03-01T02:55:16.906Z,100021.97
2023-03-01T03:00:29.116Z,100023.72
2023-03-01T03:05:33.874Z,100023.84
2023-03-01T03:10:42.343Z,100034.22
2023-03-01T03:15:46.427Z,100031.66
2023-03-01T03:20:54.591Z,100032.56
2023-03-01T03:25:58.845Z,100026.44
2023-03-01T03:31:07.191Z,100021.19
2023-03-01T03:36:14.629Z,100026.06
2023-03-01T03:41:18.988Z,100021.69
2023-03-01T03:46:22.844Z,100012.88
2023-03-01T03:51:26.789Z,99999.78
2023-03-01T03:56:30.964Z,100005.66
2023-03-01T04:01:35.277Z,99976.78
2023-03-01T04:06:39.181Z,100000.22
2023-03-01T04:11:43.170Z,99989.81
2023-03-01T04:17:07.293Z,99977.47
2023-03-01T04:22:13.036Z,99967.91
2023-03-01T04:27:17.186Z,99978.59
2023-03-01T04:32:21.131Z,99985.34
2023-03-01T04:37:25.960Z,99918.00
2023-03-01T04:42:29.727Z,99986.50
2023-03-01T04:47:33.586Z,99984.00
2023-03-01T04:52:38.197Z,99984.97
2023-03-01T04:57:42.138Z,99966.78
2023-03-01T05:02:46.115Z,99952.66
2023-03-01T05:07:49.883Z,99973.59
2023-03-01T05:12:57.091Z,99973.38
2023-03-01T05:18:01.902Z,99979.22
2023-03-01T05:23:06.962Z,99952.22
2023-03-01T05:28:14.571Z,99965.41
2023-03-01T05:33:18.781Z,99970.50
2023-03-01T05:38:24.241Z,99964.28
2023-03-01T05:43:32.968Z,99958.44
2023-03-01T05:48:38.223Z,99968.66
2023-03-01T05:53:42.082Z,99969.19
2023-03-01T05:58:46.066Z,99978.53
2023-03-01T06:03:49.911Z,99975.19
2023-03-01T06:08:54.766Z,99977.00
2023-03-01T06:13:58.762Z,99971.78
2023-03-01T06:19:02.553Z,99956.59
2023-03-01T06:24:09.389Z,99956.59
2023-03-01T06:29:13.266Z,99969.03
2023-03-01T06:34:17.434Z,99960.38
2023-03-01T06:39:21.164Z,99960.47
2023-03-01T06:44:25.148Z,99957.63
2023-03-01T06:49:29.198Z,99950.63
2023-03-01T06:54:33.899Z,99955.25
2023-03-01T06:59:37.798Z,99961.59
2023-03-01T07:04:41.758Z,99956.28
2023-03-01T07:09:47.185Z,99963.09
2023-03-01T07:14:51.126Z,99935.63
2023-03-01T07:19:55.020Z,99948.06
2023-03-01T07:24:59.068Z,99948.13
2023-03-01T07:30:03.453Z,99946.72
2023-03-01T07:35:08.378Z,99953.13
2023-03-01T07:40:13.230Z,99956.47
2023-03-01T07:45:18.033Z,99899.59
2023-03-01T07:50:22.618Z,99947.31
2023-03-01T07:55:26.649Z,99944.03
2023-03-01T08:00:30.447Z,99944.22
2023-03-01T08:05:34.474Z,99936.84
2023-03-01T08:10:38.787Z,99949.69
2023-03-01T08:15:42.661Z,99931.94
2023-03-01T08:20:46.934Z,99949.41
2023-03-01T08:25:53.040Z,99927.69
2023-03-01T08:30:57.112Z,99934.44
2023-03-01T08:36:06.526Z,99925.34
2023-03-01T08:41:10.294Z,99917.81
2023-03-01T08:46:14.821Z,99930.41
2023-03-01T08:51:23.306Z,99916.44
2023-03-01T08:56:27.574Z,99925.03
2023-03-01T09:01:31.367Z,99935.88
2023-03-01T09:06:37.180Z,99934.78
2023-03-01T09:11:41.001Z,99919.16
2023-03-01T09:16:46.334Z,99917.88
2023-03-01T09:21:58.669Z,99923.13
2023-03-01T09:27:03.303Z,99908.63
2023-03-01T09:32:08.479Z,99902.94
2023-03-01T09:37:12.357Z,99846.97
2023-03-01T09:42:18.745Z,99844.31
2023-03-01T09:47:32.607Z,99900.84
2023-03-01T09:52:50.498Z,99901.75
2023-03-01T09:58:27.256Z,99899.28
2023-03-01T10:03:40.593Z,99890.66
2023-03-01T10:08:51.941Z,99883.81
2023-03-01T10:14:09.129Z,99878.97
2023-03-01T10:19:24.242Z,99874.19
2023-03-01T10:24:31.963Z,99872.00
2023-03-01T10:29:57.138Z,99875.75
2023-03-01T10:35:00.962Z,99868.00
2023-03-01T10:40:10.470Z,99860.66
2023-03-01T10:45:39.788Z,99869.75
2023-03-01T10:50:50.959Z,99869.00
2023-03-01T10:56:06.292Z,99852.44
2023-03-01T11:01:36.724Z,99861.53
2023-03-01T11:06:43.167Z,99846.31
2023-03-01T11:11:48.204Z,99853.97
2023-03-01T11:17:05.855Z,99859.28
2023-03-01T11:22:15.992Z,99835.31
2023-03-01T11:27:25.527Z,99841.31
2023-03-01T11:32:44.956Z,99836.31
2023-03-01T11:38:08.868Z,99831.38
2023-03-01T11:43:44.993Z,99826.28
2023-03-01T11:49:17.918Z,99816.97
2023-03-01T11:54:28.797Z,99805.06
2023-03-01T12:00:03.032Z,99791.59
2023-03-01T12:05:23.832Z,99787.88
2023-03-01T12:10:30.523Z,99790.28
2023-03-01T12:15:43.289Z,99781.56
2023-03-01T12:20:47.237Z,99794.38
2023-03-01T12:26:18.032Z,99772.94
2023-03-01T12:31:46.821Z,99782.63
2023-03-01T12:37:18.357Z,99769.41
2023-03-01T12:42:44.957Z,99765.63
2023-03-01T12:48:19.864Z,99761.97
2023-03-01T12:53:48.476Z,99756.50
2023-03-01T12:59:20.074Z,99730.41
2023-03-01T13:04:29.826Z,99740.94
2023-03-01T13:09:46.641Z,99737.56
2023-03-01T13:14:50.540Z,99701.84
2023-03-01T13:20:02.511Z,99725.91
2023-03-01T13:25:42.112Z,99720.50
2023-03-01T13:30:47.622Z,99662.91
2023-03-01T13:35:51.667Z,99721.78
2023-03-01T13:40:55.688Z,99724.19
2023-03-01T13:46:03.778Z,99703.91
2023-03-01T13:51:12.910Z,99706.06
2023-03-01T13:56:24.604Z,99713.28
2023-03-01T14:01:37.466Z,99707.22
2023-03-01T14:06:41.420Z,99719.19
2023-03-01T14:11:54.990Z,99725.78
2023-03-01T14:17:30.898Z,99704.28
2023-03-01T14:22:38.214Z,99707.53
2023-03-01T14:27:43.925Z,99716.59
2023-03-01T14:32:59.960Z,99706.19
2023-03-01T14:38:05.063Z,99704.34
2023-03-01T14:43:25.436Z,99623.97
2023-03-01T14:48:34.360Z,99704.00
2023-03-01T14:53:50.277Z,99695.25
2023-03-01T14:59:00.265Z,99686.75
2023-03-01T15:04:04.781Z,99681.34
2023-03-01T15:09:14.048Z,99636.81
2023-03-01T15:14:44.101Z,99667.44
2023-03-01T15:19:49.731Z,99671.53
2023-03-01T15:24:55.041Z,99678.16
2023-03-01T15:30:05.878Z,99596.88
2023-03-01T15:35:38.774Z,99648.00
2023-03-01T15:40:54.900Z,99654.94
2023-03-01T15:46:00.321Z,99601.69
2023-03-01T15:51:04.254Z,99650.03
2023-03-01T15:56:12.124Z,99644.84
2023-03-01T16:01:19.895Z,99623.59
2023-03-01T16:06:23.838Z,99629.69
2023-03-01T16:11:27.889Z,99609.81
2023-03-01T16:16:32.200Z,99615.84
2023-03-01T16:21:38.969Z,99608.88
2023-03-01T16:26:44.025Z,99610.44
2023-03-01T16:31:48.460Z,99588.38
2023-03-01T16:36:52.609Z,99601.03
2023-03-01T16:41:56.570Z,99581.81
2023-03-01T16:47:00.401Z,99596.72
2023-03-01T16:52:04.350Z,99581.31
2023-03-01T16:57:08.387Z,99572.78
2023-03-01T17:02:14.347Z,99573.78
2023-03-01T17:07:18.358Z,99573.72
2023-03-01T17:12:22.305Z,99559.97
2023-03-01T17:17:26.352Z,99560.97
2023-03-01T17:22:30.262Z,99562.63
2023-03-01T17:27:36.309Z,99541.59
2023-03-01T17:32:40.962Z,99555.91
2023-03-01T17:37:47.224Z,99520.47
2023-03-01T17:42:51.031Z,99524.91
2023-03-01T17:47:55.906Z,99540.78
2023-03-01T17:53:00.050Z,99508.94
2023-03-01T17:58:04.882Z,99535.22
2023-03-01T18:03:08.886Z,99531.63
2023-03-01T18:08:12.821Z,99532.47
2023-03-01T18:13:17.641Z,99544.63
2023-03-01T18:18:21.373Z,99535.41
2023-03-01T18:23:26.593Z,99530.50
2023-03-01T18:28:32.178Z,99507.56
2023-03-01T18:33:37.955Z,99522.75
2023-03-01T18:38:41.988Z,99508.94
2023-03-01T18:43:48.703Z,99509.69
2023-03-01T18:48:54.602Z,99477.69
2023-03-01T18:54:00.060Z,99463.75
2023-03-01T18:59:05.432Z,99475.56
2023-03-01T19:04:11.939Z,99475.22
2023-03-01T19:09:16.259Z,99466.72
2023-03-01T19:14:20.450Z,99470.25
2023-03-01T19:19:24.579Z,99473.47
2023-03-01T19:24:29.627Z,99484.75
2023-03-01T19:29:33.460Z,99476.81
2023-03-01T19:34:39.369Z,99467.41
2023-03-01T19:39:44.130Z,99449.31
2023-03-01T19:44:48.126Z,99438.81
2023-03-01T19:49:51.891Z,99431.88
2023-03-01T19:55:08.504Z,99386.88
2023-03-01T20:00:14.019Z,99433.25
2023-03-01T20:05:19.950Z,99412.50
2023-03-01T20:10:28.951Z,99407.91
2023-03-01T20:15:33.330Z,99407.63
2023-03-01T20:20:37.555Z,99384.19
2023-03-01T20:25:41.345Z,99374.50
2023-03-01T20:30:46.626Z,99369.94
2023-03-01T20:35:52.077Z,99369.84
2023-03-01T20:41:08.557Z,99364.78
2023-03-01T20:46:13.973Z,99335.44
2023-03-01T20:51:18.160Z,99326.13
2023-03-01T20:56:23.186Z,99333.00
2023-03-01T21:01:40.799Z,99311.72
2023-03-01T21:06:45.901Z,99331.69
2023-03-01T21:11:52.673Z,99268.53
2023-03-01T21:16:56.557Z,99322.28
2023-03-01T21:22:00.618Z,99350.25
2023-03-01T21:27:08.009Z,99353.97
2023-03-01T21:32:13.299Z,99358.13
2023-03-01T21:37:19.955Z,99331.34
2023-03-01T21:42:24.072Z,99317.50
2023-03-01T21:47:28.829Z,99312.44
2023-03-01T21:52:32.638Z,99332.78
2023-03-01T21:57:45.982Z,99301.47
2023-03-01T22:02:50.538Z,99313.38
2023-03-01T22:07:54.391Z,99290.59
2023-03-01T22:13:02.789Z,99295.31
2023-03-01T22:18:06.983Z,99293.94
2023-03-01T22:23:11.036Z,99311.19
2023-03-01T22:28:15.859Z,99302.59
2023-03-01T22:33:22.019Z,99309.63
2023-03-01T22:38:25.967Z,99318.19
2023-03-01T22:43:31.542Z,99298.28
2023-03-01T22:48:35.456Z,99293.19
2023-03-01T22:53:40.152Z,99295.00
2023-03-01T22:58:44.248Z,99292.91
2023-03-01T23:03:49.826Z,99295.19
2023-03-01T23:08:56.879Z,99268.44
2023-03-01T23:14:00.971Z,99277.03
2023-03-01T23:19:07.974Z,99270.72
2023-03-01T23:24:12.012Z,99272.47
2023-03-01T23:29:16.146Z,99271.13
2023-03-01T23:34:20.931Z,99227.09
2023-03-01T23:39:24.814Z,99292.03
2023-03-01T23:44:30.001Z,99269.38
2023-03-01T23:49:33.801Z,99262.66
2023-03-01T23:54:37.700Z,99280.03
2023-03-01T23:59:41.661Z,99267.75
